Time;durP1;ratioP1;P1;durP2;ratioP2;P2;SDS_P1;SDS_P2;PMS_P1;PMS_P2;Temp;Humidity;BMP_temperature;BMP_pressure;BME280_temperature;BME280_humidity;BME280_pressure;Samples;Min_cycle;Max_cycle;Signal;HPM_P1;HPM_P2
2023/10/18 00:04:03;;;;;;;10.53;6.80;;;;;;;-145.68;100.00;75353.09;10484976;28;20176;-74
2023/10/18 00:09:38;;;;;;;12.70;6.73;;;;;;;-145.68;100.00;75341.09;10485322;28;20180;-74
2023/10/18 00:14:27;;;;;;;10.37;6.60;;;;;;;-145.68;100.00;75329.09;10484805;28;20271;-74
2023/10/18 00:19:27;;;;;;;10.17;6.17;;;;;;;-145.68;100.00;75319.13;10484711;28;20236;-74
2023/10/18 00:24:27;;;;;;;12.23;5.83;;;;;;;-145.68;100.00;75325.09;10483262;28;20181;-75
2023/10/18 00:29:28;;;;;;;7.73;5.63;;;;;;;-145.68;100.00;75315.13;10484578;28;20670;-74
2023/10/18 00:34:28;;;;;;;10.37;6.13;;;;;;;-145.68;100.00;75323.09;10485585;28;20219;-75
2023/10/18 00:39:32;;;;;;;8.70;6.17;;;;;;;-145.68;100.00;75333.09;10483753;28;20186;-74
2023/10/18 00:44:35;;;;;;;9.87;6.47;;;;;;;-145.68;100.00;75333.09;10484305;28;20187;-74
2023/10/18 00:49:35;;;;;;;10.23;6.13;;;;;;;-145.68;100.00;75323.09;10485378;28;20738;-74
2023/10/18 00:54:38;;;;;;;8.37;5.90;;;;;;;-145.68;100.00;75293.13;10483576;28;20226;-74
2023/10/18 00:59:38;;;;;;;8.77;6.03;;;;;;;-145.68;100.00;75253.13;10481191;28;20232;-74
2023/10/18 01:04:40;;;;;;;9.77;6.37;;;;;;;-145.68;100.00;75247.13;10483668;28;20182;-75
2023/10/18 01:09:59;;;;;;;11.47;5.93;;;;;;;-145.68;100.00;75247.13;10483073;28;20720;-74
2023/10/18 01:15:00;;;;;;;8.10;6.23;;;;;;;-145.68;100.00;75263.13;10485432;28;20212;-74
2023/10/18 01:20:33;;;;;;;8.83;5.63;;;;;;;-145.68;100.00;75309.13;10481684;28;20223;-73
2023/10/18 01:25:24;;;;;;;7.63;5.17;;;;;;;-145.68;100.00;75371.09;10493873;28;20186;-75
2023/10/18 01:30:24;;;;;;;8.30;5.47;;;;;;;-145.68;100.00;75415.09;10480678;28;20205;-74
2023/10/18 01:35:25;;;;;;;8.50;5.90;;;;;;;-145.68;100.00;75455.09;10476234;28;20231;-74
2023/10/18 01:45:35;;;;;;;9.97;6.10;;;;;;;-145.68;100.00;75481.09;10480931;28;20225;-74
2023/10/18 01:50:38;;;;;;;10.40;6.67;;;;;;;-145.68;100.00;75471.09;10473130;28;20640;-73
2023/10/18 01:55:42;;;;;;;15.20;5.93;;;;;;;-145.68;100.00;75493.09;10481322;28;20223;-75
2023/10/18 02:00:44;;;;;;;11.03;6.83;;;;;;;-145.68;100.00;75491.09;10489005;28;20187;-74
2023/10/18 02:05:44;;;;;;;8.43;6.67;;;;;;;-145.68;100.00;75493.09;10480270;28;20648;-74
2023/10/18 02:10:45;;;;;;;8.83;6.27;;;;;;;-145.68;100.00;75473.09;10480415;28;20202;-74
2023/10/18 02:15:45;;;;;;;9.17;6.00;;;;;;;-145.68;100.00;75477.09;10476890;28;20576;-74
2023/10/18 02:20:54;;;;;;;12.43;7.27;;;;;;;-145.68;100.00;75479.09;10476238;28;20223;-74
2023/10/18 02:25:55;;;;;;;10.53;6.67;;;;;;;-145.68;100.00;75445.09;10474509;28;20180;-74
2023/10/18 02:30:57;;;;;;;10.10;7.07;;;;;;;-145.68;100.00;75425.09;10476046;28;20187;-73
2023/10/18 02:35:58;;;;;;;13.33;7.60;;;;;;;-145.68;100.00;75423.09;10474256;28;20348;-73
2023/10/18 02:41:01;;;;;;;14.17;7.53;;;;;;;-145.68;100.00;75423.09;10467600;28;20199;-74
2023/10/18 02:46:07;;;;;;;12.50;8.30;;;;;;;-145.68;100.00;75387.09;10474580;28;20231;-74
2023/10/18 02:51:11;;;;;;;13.43;8.77;;;;;;;-145.68;100.00;75335.09;10476122;28;20227;-74
2023/10/18 02:56:17;;;;;;;14.00;8.70;;;;;;;-145.68;100.00;75293.13;10475430;28;20699;-74
2023/10/18 03:01:21;;;;;;;13.63;8.10;;;;;;;-145.68;100.00;75263.13;10476087;28;20278;-73
2023/10/18 03:06:27;;;;;;;14.57;7.67;;;;;;;-145.68;100.00;75243.13;10473181;28;20183;-73
2023/10/18 03:11:31;;;;;;;17.50;7.83;;;;;;;-145.68;100.00;75223.13;10473852;28;20222;-74
2023/10/18 03:21:32;;;;;;;14.03;6.90;;;;;;;-145.68;100.00;75215.13;10471801;28;20222;-73
2023/10/18 03:26:36;;;;;;;12.07;7.07;;;;;;;-145.68;100.00;75223.13;10473080;28;20176;-73
2023/10/18 03:31:36;;;;;;;10.37;6.50;;;;;;;-145.68;100.00;75239.13;10472819;28;20217;-74
2023/10/18 03:36:48;;;;;;;15.93;6.67;;;;;;;-145.68;100.00;75239.13;10478309;28;20208;-73
2023/10/18 03:41:53;;;;;;;17.53;7.13;;;;;;;-145.68;100.00;75253.13;10469760;28;20192;-74
2023/10/18 03:57:08;;;;;;;13.63;6.10;;;;;;;-145.68;100.00;75259.13;10473065;28;20246;-73
2023/10/18 04:02:15;;;;;;;12.37;6.27;;;;;;;-145.68;100.00;75291.13;10471292;28;20252;-74
2023/10/18 04:07:16;;;;;;;10.77;6.40;;;;;;;-145.68;100.00;75305.13;10473315;28;20205;-73
2023/10/18 04:12:19;;;;;;;13.03;6.17;;;;;;;-145.68;100.00;75327.09;10473555;28;20207;-73
2023/10/18 04:17:31;;;;;;;10.13;6.30;;;;;;;-145.68;100.00;75341.09;10473092;28;20190;-73
2023/10/18 04:22:33;;;;;;;12.87;6.63;;;;;;;-145.68;100.00;75355.09;10469093;28;20225;-74
2023/10/18 04:27:33;;;;;;;11.43;5.87;;;;;;;-145.68;100.00;75369.09;10472213;28;20324;-74
2023/10/18 04:32:33;;;;;;;11.67;6.47;;;;;;;-145.68;100.00;75371.09;10472037;28;20296;-74
2023/10/18 04:37:34;;;;;;;16.90;7.83;;;;;;;-145.68;100.00;75391.09;10471771;28;20191;-74
2023/10/18 04:42:36;;;;;;;11.43;6.40;;;;;;;-145.68;100.00;75391.09;10471386;28;20187;-74
2023/10/18 04:47:40;;;;;;;11.70;7.07;;;;;;;-145.68;100.00;75399.09;10470219;28;20199;-74
2023/10/18 04:52:40;;;;;;;14.17;7.60;;;;;;;-145.68;100.00;75387.09;10465827;28;20222;-73
2023/10/18 04:57:41;;;;;;;11.70;7.00;;;;;;;-145.68;100.00;75401.09;10471084;28;20183;-74
2023/10/18 05:02:45;;;;;;;15.23;6.77;;;;;;;-145.68;100.00;75385.09;10472700;28;20278;-73
2023/10/18 05:07:48;;;;;;;10.73;6.67;;;;;;;-145.68;100.00;75411.09;10470679;28;20706;-75
2023/10/18 05:13:01;;;;;;;15.33;7.17;;;;;;;-145.68;100.00;75411.09;10470360;28;20246;-74
2023/10/18 05:18:04;;;;;;;15.20;6.90;;;;;;;-145.68;100.00;75405.09;10470238;28;20192;-74
2023/10/18 05:23:05;;;;;;;16.03;8.10;;;;;;;-145.68;100.00;75417.09;10469825;28;20787;-74
2023/10/18 05:28:24;;;;;;;14.73;8.07;;;;;;;-145.68;100.00;75417.09;10454835;28;20210;-74
2023/10/18 05:43:47;;;;;;;14.07;7.53;;;;;;;-145.68;100.00;75411.09;10459966;28;20188;-74
2023/10/18 05:48:47;;;;;;;15.23;8.33;;;;;;;-145.68;100.00;75405.09;10459398;28;20715;-74
2023/10/18 05:53:48;;;;;;;13.37;8.03;;;;;;;-145.68;100.00;75393.09;10454805;28;20297;-74
2023/10/18 05:59:15;;;;;;;13.87;8.63;;;;;;;-145.68;100.00;75375.09;10466927;28;20674;-74
2023/10/18 06:04:09;;;;;;;14.37;8.37;;;;;;;-145.68;100.00;75367.09;10459292;28;20187;-74
2023/10/18 06:09:10;;;;;;;11.57;7.07;;;;;;;-145.68;100.00;75359.09;10473670;28;20915;-74
2023/10/18 06:14:16;;;;;;;13.07;8.33;;;;;;;-145.68;100.00;75367.09;10469436;28;20251;-75
2023/10/18 06:19:22;;;;;;;15.83;8.63;;;;;;;-145.68;100.00;75343.09;10468749;28;20225;-74
2023/10/18 06:24:24;;;;;;;16.30;8.77;;;;;;;-145.68;100.00;75327.09;10468245;28;20223;-75
2023/10/18 06:29:24;;;;;;;16.93;8.53;;;;;;;-145.68;100.00;75309.13;10469930;28;20283;-74
2023/10/18 06:34:26;;;;;;;14.93;8.43;;;;;;;-145.68;100.00;75287.13;10467449;28;20200;-74
2023/10/18 06:39:34;;;;;;;20.30;10.70;;;;;;;-145.68;100.00;75271.13;10466439;28;20223;-73
2023/10/18 06:44:34;;;;;;;23.37;9.37;;;;;;;-145.68;100.00;75227.13;10473626;28;20278;-73
2023/10/18 06:49:35;;;;;;;17.07;9.20;;;;;;;-145.68;100.00;75195.13;10464956;28;20211;-74
2023/10/18 06:54:38;;;;;;;15.00;9.60;;;;;;;-145.68;100.00;75153.13;10474951;28;20223;-74
2023/10/18 06:59:39;;;;;;;16.47;9.43;;;;;;;-145.68;100.00;75091.16;10463367;28;20188;-73
2023/10/18 07:04:51;;;;;;;16.63;9.27;;;;;;;-145.68;100.00;75019.16;10468799;28;20205;-73
2023/10/18 07:09:56;;;;;;;16.33;9.40;;;;;;;-145.68;100.00;74935.19;10473415;28;20215;-74
2023/10/18 07:14:57;;;;;;;12.73;8.10;;;;;;;-145.68;100.00;74787.22;10473246;28;20289;-74
2023/10/18 07:19:58;;;;;;;11.27;7.40;;;;;;;-145.68;100.00;74653.25;10469291;28;20586;-74
2023/10/18 07:25:01;;;;;;;15.20;8.23;;;;;;;-145.68;100.00;74599.28;10473252;28;20191;-74
2023/10/18 07:30:03;;;;;;;10.10;6.60;;;;;;;-145.68;100.00;74537.31;10467292;28;20519;-74
2023/10/18 07:35:04;;;;;;;10.87;5.93;;;;;;;-145.68;91.37;74449.34;10469237;28;20339;-74
2023/10/18 07:40:08;;;;;;;9.60;6.63;;;;;;;-145.68;84.19;74425.34;10473352;28;20183;-74
2023/10/18 07:45:14;;;;;;;8.97;5.73;;;;;;;-145.68;80.10;74311.38;10476420;28;20198;-74
2023/10/18 07:55:37;;;;;;;12.20;7.30;;;;;;;-145.68;77.64;74241.41;10458648;28;20212;-74
2023/10/18 08:00:37;;;;;;;12.13;6.83;;;;;;;-145.68;75.78;74195.44;10453329;28;20248;-74
2023/10/18 08:05:50;;;;;;;14.60;6.27;;;;;;;-145.68;72.11;74109.47;10459747;28;20267;-74
2023/10/18 08:10:54;;;;;;;10.87;6.30;;;;;;;-145.68;69.45;73987.53;10477836;28;20262;-74
2023/10/18 08:15:56;;;;;;;8.20;5.63;;;;;;;-145.68;66.13;73937.56;10469927;28;20262;-74
2023/10/18 08:21:06;;;;;;;9.05;5.60;;;;;;;-145.68;63.87;73807.63;10475387;28;20307;-74
2023/10/18 08:26:06;;;;;;;8.88;5.75;;;;;;;-145.68;59.53;73681.69;10464353;28;20285;-74
2023/10/18 08:31:35;;;;;;;14.23;7.22;;;;;;;-145.68;56.04;73645.72;10465102;28;20267;-73
2023/10/18 08:36:35;;;;;;;7.82;6.30;;;;;;;-145.68;54.94;73579.75;10466426;28;20575;-74
2023/10/18 08:41:44;;;;;;;6.72;4.78;;;;;;;-145.68;52.41;73411.84;10467279;28;20184;-73
2023/10/18 08:47:04;;;;;;;9.10;5.85;;;;;;;-145.68;49.73;73421.84;10468474;28;20192;-73
2023/10/18 08:52:11;;;;;;;15.95;7.63;;;;;;;-145.68;51.36;73533.78;10469978;28;20630;-73
2023/10/18 08:57:11;;;;;;;9.52;7.07;;;;;;;-145.68;51.66;73537.78;10470737;28;20188;-73
2023/10/18 09:02:17;;;;;;;8.85;5.13;;;;;;;-145.68;48.70;73383.88;10470996;28;20187;-73
2023/10/18 09:07:42;;;;;;;10.32;5.53;;;;;;;-145.68;48.17;73271.94;10473191;28;20660;-73
2023/10/18 09:17:50;;;;;;;5.32;3.15;;;;;;;-145.68;47.63;73309.91;10474365;28;20562;-74
2023/10/18 09:22:50;;;;;;;6.18;3.65;;;;;;;-145.68;43.78;73142.03;10470286;28;20299;-74
2023/10/18 09:27:52;;;;;;;4.05;3.08;;;;;;;-145.68;43.86;73309.91;10472570;28;20200;-74
2023/10/18 09:32:52;;;;;;;3.10;2.58;;;;;;;-145.68;43.32;73317.91;10472221;28;20381;-74
2023/10/18 09:37:53;;;;;;;4.50;2.67;;;;;;;-145.68;44.22;73505.78;10467607;28;20253;-73
2023/10/18 09:42:54;;;;;;;3.60;2.70;;;;;;;-145.68;44.01;73447.81;10469915;28;20192;-73
2023/10/18 09:47:58;;;;;;;3.60;2.70;;;;;;;-145.68;41.90;73182.00;10465258;28;20204;-73
2023/10/18 09:52:59;;;;;;;5.00;2.88;;;;;;;-145.68;41.69;73331.91;10463512;28;20219;-73
2023/10/18 09:58:02;;;;;;;4.75;2.92;;;;;;;-145.68;42.59;73371.88;10466620;28;20183;-74
2023/10/18 10:03:08;;;;;;;6.68;3.42;;;;;;;-145.68;41.51;73225.97;10468702;28;20271;-74
2023/10/18 10:08:12;;;;;;;3.75;2.85;;;;;;;-145.68;43.51;73449.81;10468234;28;20184;-74
2023/10/18 10:13:27;;;;;;;3.80;3.00;;;;;;;-145.68;43.94;73471.81;10469870;28;20702;-74
2023/10/18 10:18:30;;;;;;;3.88;2.60;;;;;;;-145.68;44.29;73491.81;10476576;28;20208;-75
2023/10/18 10:23:35;;;;;;;5.32;3.20;;;;;;;-145.68;43.69;73463.81;10472202;28;20300;-75
2023/10/18 10:34:05;;;;;;;5.55;3.47;;;;;;;-145.68;42.80;73483.81;10476397;28;20219;-75
2023/10/18 10:39:12;;;;;;;4.18;3.15;;;;;;;-145.68;43.46;73421.84;10476713;28;20237;-74
2023/10/18 10:44:30;;;;;;;3.85;3.22;;;;;;;-145.68;42.83;73307.91;10476595;28;20253;-75
2023/10/18 10:49:49;;;;;;;5.15;3.17;;;;;;;-145.68;41.67;73211.97;10469390;28;20212;-74
2023/10/18 10:54:51;;;;;;;7.80;3.20;;;;;;;-145.68;42.00;73255.94;10488016;28;20310;-74
2023/10/18 10:59:52;;;;;;;6.68;3.60;;;;;;;-145.68;43.01;73399.84;10473491;28;20216;-75
2023/10/18 11:05:00;;;;;;;3.85;3.17;;;;;;;-145.68;42.21;73337.91;10476287;28;20192;-74
2023/10/18 11:10:06;;;;;;;3.63;2.65;;;;;;;-145.68;41.45;73239.97;10469725;28;20198;-75
2023/10/18 11:15:16;;;;;;;4.25;2.90;;;;;;;-145.68;40.11;73203.97;10475336;28;20212;-75
2023/10/18 11:26:27;;;;;;;8.65;3.05;;;;;;;-145.68;40.65;73249.94;10468141;28;20218;-75
2023/10/18 11:31:28;;;;;;;3.97;2.88;;;;;;;-145.68;40.71;73221.97;10474742;28;20274;-75
2023/10/18 11:36:28;;;;;;;4.18;2.78;;;;;;;-145.68;42.30;73299.91;10472888;28;20203;-75
2023/10/18 11:41:34;;;;;;;4.78;3.17;;;;;;;-145.68;41.16;73253.94;10456084;28;20237;-75
2023/10/18 11:46:50;;;;;;;4.55;3.25;;;;;;;-145.68;40.62;73217.97;10472165;28;20262;-74
2023/10/18 11:51:51;;;;;;;4.32;2.97;;;;;;;-145.68;40.39;73188.00;10471749;28;20207;-75
2023/10/18 11:56:51;;;;;;;3.85;2.65;;;;;;;-145.68;39.96;73217.97;10474493;28;20586;-74
2023/10/18 12:01:57;;;;;;;5.47;3.78;;;;;;;-145.68;41.73;73245.97;10475693;28;20237;-75
2023/10/18 12:13:23;;;;;;;4.00;3.22;;;;;;;-145.68;40.82;73251.94;10471968;28;20215;-75
2023/10/18 12:18:23;;;;;;;4.35;3.03;;;;;;;-145.68;40.35;73227.97;10470305;28;20191;-75
2023/10/18 12:23:25;;;;;;;5.15;3.10;;;;;;;-145.68;41.17;73417.84;10467132;28;20230;-75
2023/10/18 12:28:28;;;;;;;4.85;3.78;;;;;;;-145.68;41.82;73351.88;10463079;28;20323;-75
2023/10/18 12:33:28;;;;;;;5.68;3.95;;;;;;;-145.68;42.48;73373.88;10448609;28;20220;-78
2023/10/18 12:38:32;;;;;;;16.42;12.73;;;;;;;-145.68;42.10;73309.91;10451597;28;20187;-74
2023/10/18 12:43:37;;;;;;;5.65;3.67;;;;;;;-145.68;41.16;73273.94;10465869;28;20533;-74
2023/10/18 12:48:38;;;;;;;5.10;4.00;;;;;;;-145.68;40.99;73209.97;10461258;28;20307;-74
2023/10/18 12:53:41;;;;;;;8.38;4.15;;;;;;;-145.68;41.01;73168.00;10464354;28;20229;-74
2023/10/18 12:58:48;;;;;;;5.03;3.63;;;;;;;-145.68;39.49;73080.06;10461531;28;20195;-74
2023/10/18 13:03:59;;;;;;;4.70;3.80;;;;;;;-145.68;40.73;73211.97;10461093;28;20192;-74
2023/10/18 13:09:44;;;;;;;6.88;4.03;;;;;;;-145.68;40.67;73098.06;10466162;28;20656;-75
2023/10/18 13:14:32;;;;;;;6.07;4.22;;;;;;;-145.68;41.22;73261.94;10469128;28;20281;-74
2023/10/18 13:19:33;;;;;;;6.07;4.43;;;;;;;-145.68;41.57;73219.97;10463380;28;20187;-74
2023/10/18 13:24:33;;;;;;;5.50;4.10;;;;;;;-145.68;42.06;73182.00;10465307;28;20231;-73
2023/10/18 13:29:45;;;;;;;7.15;4.57;;;;;;;-145.68;41.82;73112.03;10462839;28;20240;-73
2023/10/18 13:34:49;;;;;;;6.60;5.53;;;;;;;-145.68;42.58;73255.94;10475090;28;20222;-73
2023/10/18 13:39:52;;;;;;;9.35;6.47;;;;;;;-145.68;43.99;73271.94;10463763;28;20203;-73
2023/10/18 13:44:52;;;;;;;9.98;7.25;;;;;;;-145.68;46.58;73337.91;10455551;28;20692;-72
2023/10/18 13:49:54;;;;;;;10.18;7.25;;;;;;;-145.68;46.64;73347.88;10463966;28;20226;-72
2023/10/18 13:54:55;;;;;;;15.85;8.50;;;;;;;-145.68;47.90;73473.81;10467949;28;20242;-73
2023/10/18 13:59:59;;;;;;;12.18;8.38;;;;;;;-145.68;49.92;73547.75;10462673;28;20329;-73
2023/10/18 14:04:59;;;;;;;11.10;8.93;;;;;;;-145.68;50.51;73615.72;10465768;28;20207;-73
2023/10/18 14:10:07;;;;;;;12.83;9.13;;;;;;;-145.68;51.99;73629.72;10466219;28;20184;-73
2023/10/18 14:15:08;;;;;;;14.00;10.37;;;;;;;-145.68;53.84;73667.69;10471511;28;20258;-73
2023/10/18 14:20:10;;;;;;;13.20;9.97;;;;;;;-145.68;54.11;73661.69;10468162;28;20184;-73
2023/10/18 14:25:13;;;;;;;16.10;9.97;;;;;;;-145.68;54.79;73671.69;10472246;28;20192;-73
2023/10/18 14:30:14;;;;;;;15.73;10.70;;;;;;;-145.68;55.76;73661.69;10467172;28;20600;-74
2023/10/18 14:35:16;;;;;;;16.47;10.93;;;;;;;-145.68;56.12;73637.72;10467718;28;20310;-73
2023/10/18 14:40:27;;;;;;;15.17;11.90;;;;;;;-145.68;57.13;73699.69;10463132;28;20191;-72
2023/10/18 14:45:32;;;;;;;16.50;11.83;;;;;;;-145.68;57.84;73693.69;10470928;28;20274;-73
2023/10/18 14:50:35;;;;;;;17.50;11.27;;;;;;;-145.68;58.84;73681.69;10469085;28;20648;-73
2023/10/18 14:55:36;;;;;;;21.40;13.57;;;;;;;-145.68;59.61;73671.69;10470245;28;20226;-73
2023/10/18 15:00:39;;;;;;;17.67;12.13;;;;;;;-145.68;59.57;73683.69;10465945;28;20198;-73
2023/10/18 15:05:39;;;;;;;16.87;12.57;;;;;;;-145.68;60.09;73671.69;10468894;28;20199;-73
2023/10/18 15:10:40;;;;;;;22.07;12.73;;;;;;;-145.68;60.81;73683.69;10470153;28;20575;-74
2023/10/18 15:15:40;;;;;;;22.70;12.00;;;;;;;-145.68;61.80;73683.69;10458274;28;20318;-74
2023/10/18 15:20:44;;;;;;;20.90;12.43;;;;;;;-145.68;61.77;73687.69;10467859;28;20307;-73
2023/10/18 15:25:44;;;;;;;20.07;13.10;;;;;;;-145.68;63.54;73723.66;10472342;28;20248;-74
2023/10/18 15:30:45;;;;;;;16.50;13.17;;;;;;;-145.68;63.60;73705.69;10471145;28;20188;-74
2023/10/18 15:35:45;;;;;;;16.70;12.77;;;;;;;-145.68;64.23;73725.66;10471711;28;20215;-74
2023/10/18 15:40:47;;;;;;;21.63;13.00;;;;;;;-145.68;64.74;73737.66;10467886;28;20196;-73
2023/10/18 15:45:48;;;;;;;20.10;12.83;;;;;;;-145.68;64.62;73741.66;10467154;28;20199;-73
2023/10/18 15:50:51;;;;;;;19.67;13.50;;;;;;;-145.68;65.88;73759.66;10471459;28;20579;-73
2023/10/18 15:55:51;;;;;;;17.73;13.40;;;;;;;-145.68;66.04;73757.66;10470915;28;20215;-73
2023/10/18 16:00:54;;;;;;;22.70;14.17;;;;;;;-145.68;66.79;73783.63;10471468;28;20302;-73
2023/10/18 16:05:54;;;;;;;17.30;13.37;;;;;;;-145.68;67.93;73787.63;10477165;28;20192;-73
2023/10/18 16:10:56;;;;;;;19.07;14.20;;;;;;;-145.68;69.64;73795.63;10470729;28;20187;-73
2023/10/18 16:15:58;;;;;;;21.13;13.27;;;;;;;-145.68;70.67;73823.63;10466841;28;20319;-73
2023/10/18 16:20:59;;;;;;;19.60;13.90;;;;;;;-145.68;73.25;73831.59;10466584;28;20834;-73
2023/10/18 16:26:00;;;;;;;18.53;14.13;;;;;;;-145.68;74.70;73859.59;10471443;28;20504;-72
2023/10/18 16:31:03;;;;;;;25.67;16.70;;;;;;;-145.68;76.42;73875.59;10470778;28;20188;-73
2023/10/18 16:36:04;;;;;;;21.93;15.33;;;;;;;-145.68;77.22;73887.56;10470908;28;20212;-73
2023/10/18 16:41:06;;;;;;;25.60;15.70;;;;;;;-145.68;79.33;73895.56;10471239;28;20203;-73
2023/10/18 16:46:08;;;;;;;22.87;14.87;;;;;;;-145.68;80.98;73919.56;10464769;28;20191;-73
2023/10/18 16:51:11;;;;;;;27.67;15.93;;;;;;;-145.68;83.22;73937.56;10456018;28;20243;-73
2023/10/18 16:56:14;;;;;;;32.37;19.23;;;;;;;-145.68;86.02;73961.53;10451611;28;20203;-72
2023/10/18 17:01:18;;;;;;;27.27;18.83;;;;;;;-145.68;88.18;73949.56;10452904;28;20219;-73
2023/10/18 17:06:18;;;;;;;24.17;16.80;;;;;;;-145.68;90.59;73953.53;10457573;28;20201;-73
2023/10/18 17:11:20;;;;;;;27.57;16.87;;;;;;;-145.68;88.79;73927.56;10463675;28;20183;-73
2023/10/18 17:16:21;;;;;;;33.73;22.97;;;;;;;-145.68;89.29;73943.56;10455145;28;20200;-74
2023/10/18 17:21:22;;;;;;;28.43;20.40;;;;;;;-145.68;90.97;73947.56;10461588;28;20227;-73
2023/10/18 17:26:22;;;;;;;29.77;22.17;;;;;;;-145.68;92.71;73961.53;10460618;28;20183;-73
2023/10/18 17:31:23;;;;;;;23.23;17.93;;;;;;;-145.68;93.44;73927.56;10464843;28;20191;-73
2023/10/18 17:36:23;;;;;;;25.23;17.47;;;;;;;-145.68;92.92;73915.56;10468144;28;20251;-73
2023/10/18 17:41:24;;;;;;;21.60;17.07;;;;;;;-145.68;90.08;73859.59;10467070;28;20183;-73
2023/10/18 17:46:24;;;;;;;30.97;21.27;;;;;;;-145.68;88.66;73871.59;10469103;28;20191;-73
2023/10/18 17:51:25;;;;;;;47.93;28.57;;;;;;;-145.68;86.44;73835.59;10469468;28;20202;-73
2023/10/18 17:56:25;;;;;;;168.67;79.37;;;;;;;-145.68;80.48;73747.66;10468297;28;20204;-73
2023/10/18 18:01:26;;;;;;;15.93;10.73;;;;;;;-145.68;77.41;73693.69;10468268;28;20199;-74
2023/10/18 18:06:26;;;;;;;14.87;9.80;;;;;;;-145.68;73.00;73627.72;10467205;28;20275;-72
2023/10/18 18:11:28;;;;;;;15.03;11.23;;;;;;;-145.68;71.45;73641.72;10468602;28;20213;-73
2023/10/18 18:16:28;;;;;;;13.90;8.20;;;;;;;-145.68;69.28;73597.75;10469726;28;20203;-73
2023/10/18 18:21:28;;;;;;;11.20;8.93;;;;;;;-145.68;67.85;73593.75;10467558;28;20226;-72
2023/10/18 18:26:29;;;;;;;12.53;8.70;;;;;;;-145.68;66.76;73589.75;10467187;28;20190;-73
2023/10/18 18:31:30;;;;;;;12.17;9.07;;;;;;;-145.68;66.17;73583.75;10468170;28;20195;-73
2023/10/18 18:36:30;;;;;;;13.63;9.50;;;;;;;-145.68;65.61;73573.75;10469779;28;20211;-73
2023/10/18 18:41:31;;;;;;;9.57;7.17;;;;;;;-145.68;64.77;73553.75;10473823;28;20199;-73
2023/10/18 18:46:31;;;;;;;14.10;8.60;;;;;;;-145.68;64.79;73559.75;10475647;28;20186;-73
2023/10/18 18:51:32;;;;;;;12.63;6.90;;;;;;;-145.68;64.37;73543.78;10475790;28;20265;-73
2023/10/18 18:56:33;;;;;;;12.40;8.00;;;;;;;-145.68;63.60;73547.75;10475075;28;20207;-73
2023/10/18 19:01:36;;;;;;;13.37;8.23;;;;;;;-145.68;63.72;73549.75;10474873;28;20190;-73
2023/10/18 19:06:36;;;;;;;13.47;6.97;;;;;;;-145.68;63.88;73547.75;10477386;28;20682;-73
2023/10/18 19:11:37;;;;;;;12.70;7.77;;;;;;;-145.68;63.64;73551.75;10472972;28;20207;-72
2023/10/18 19:16:37;;;;;;;13.27;8.83;;;;;;;-145.68;63.20;73541.78;10474965;28;20215;-72
2023/10/18 19:21:38;;;;;;;12.40;8.07;;;;;;;-145.68;63.56;73543.78;10472885;28;20297;-73
2023/10/18 19:26:38;;;;;;;12.97;7.53;;;;;;;-145.68;62.95;73527.78;10475395;28;20213;-73
2023/10/18 19:31:39;;;;;;;15.43;8.73;;;;;;;-145.68;63.14;73541.78;10465931;28;20269;-73
2023/10/18 19:36:41;;;;;;;14.60;8.23;;;;;;;-145.68;63.73;73531.78;10468391;28;20207;-73
2023/10/18 19:41:42;;;;;;;12.33;8.37;;;;;;;-145.68;63.56;73525.78;10473514;28;20180;-73
2023/10/18 19:46:42;;;;;;;8.97;5.13;;;;;;;-145.68;63.51;73511.78;10473764;28;20191;-73
2023/10/18 19:51:43;;;;;;;11.13;8.13;;;;;;;-145.68;62.76;73507.78;10474095;28;20675;-73
2023/10/18 19:56:43;;;;;;;15.33;7.93;;;;;;;-145.68;62.79;73507.78;10475248;28;20267;-73
2023/10/18 20:01:44;;;;;;;14.07;7.73;;;;;;;-145.68;63.28;73521.78;10470672;28;20187;-73
2023/10/18 20:06:44;;;;;;;12.07;8.70;;;;;;;-145.68;62.77;73505.78;10471886;28;20187;-74
2023/10/18 20:11:48;;;;;;;11.00;7.40;;;;;;;-145.68;63.01;73501.78;10473281;28;20622;-73
2023/10/18 20:16:48;;;;;;;12.53;8.07;;;;;;;-145.68;62.47;73495.78;10466311;28;20636;-73
2023/10/18 20:21:48;;;;;;;14.23;9.13;;;;;;;-145.68;63.06;73523.78;10471845;28;20227;-73
2023/10/18 20:26:49;;;;;;;17.80;8.90;;;;;;;-145.68;63.36;73509.78;10472700;28;20180;-73
2023/10/18 20:31:50;;;;;;;11.30;8.20;;;;;;;-145.68;62.90;73509.78;10474323;28;20194;-73
2023/10/18 20:36:51;;;;;;;11.13;8.47;;;;;;;-145.68;63.21;73501.78;10479250;28;20222;-73
2023/10/18 20:41:53;;;;;;;15.50;9.17;;;;;;;-145.68;62.99;73481.81;10469632;28;20227;-72
2023/10/18 20:46:55;;;;;;;11.83;8.20;;;;;;;-145.68;62.28;73455.81;10472282;28;20215;-73
2023/10/18 20:51:58;;;;;;;13.30;7.97;;;;;;;-145.68;62.44;73487.81;10471585;28;20212;-73
2023/10/18 20:56:58;;;;;;;10.77;7.73;;;;;;;-145.68;61.99;73467.81;10467107;28;20250;-72
2023/10/18 21:02:06;;;;;;;13.90;7.17;;;;;;;-145.68;62.27;73463.81;10471111;28;20188;-72
2023/10/18 21:07:08;;;;;;;9.83;7.57;;;;;;;-145.68;62.41;73469.81;10471384;28;20787;-73
2023/10/18 21:12:09;;;;;;;14.83;8.40;;;;;;;-145.68;62.79;73475.81;10471531;28;20175;-73
2023/10/18 21:17:09;;;;;;;12.50;7.80;;;;;;;-145.68;63.51;73473.81;10471158;28;20219;-73
2023/10/18 21:22:10;;;;;;;12.07;7.47;;;;;;;-145.68;62.76;73473.81;10470423;28;20227;-73
2023/10/18 21:27:10;;;;;;;11.83;7.70;;;;;;;-145.68;63.04;73453.81;10472069;28;20257;-73
2023/10/18 21:32:11;;;;;;;11.30;6.40;;;;;;;-145.68;62.42;73431.84;10470903;28;20180;-73
2023/10/18 21:37:12;;;;;;;11.47;7.47;;;;;;;-145.68;61.81;73411.84;10470159;28;20250;-73
2023/10/18 21:42:13;;;;;;;10.43;6.63;;;;;;;-145.68;61.63;73415.84;10470731;28;20187;-72
2023/10/18 21:47:13;;;;;;;11.33;7.23;;;;;;;-145.68;61.67;73401.84;10472053;28;20184;-73
2023/10/18 21:52:13;;;;;;;16.93;7.87;;;;;;;-145.68;61.10;73401.84;10470079;28;20198;-73
2023/10/18 21:57:14;;;;;;;7.20;4.10;;;;;;;-145.68;61.53;73395.84;10470353;28;20218;-73
2023/10/18 22:02:16;;;;;;;10.77;7.27;;;;;;;-145.68;61.13;73399.84;10469693;28;20558;-73
2023/10/18 22:07:17;;;;;;;14.40;6.70;;;;;;;-145.68;61.55;73429.84;10469898;28;20188;-72
2023/10/18 22:12:26;;;;;;;13.03;6.87;;;;;;;-145.68;61.46;73423.84;10471152;28;21009;-72
2023/10/18 22:17:31;;;;;;;13.00;7.27;;;;;;;-145.68;61.11;73425.84;10479291;28;20219;-73
2023/10/18 22:22:33;;;;;;;11.67;6.27;;;;;;;-145.68;62.18;73425.84;10477992;28;20623;-73
2023/10/18 22:27:38;;;;;;;10.63;6.97;;;;;;;-145.68;61.65;73405.84;10476654;28;20679;-72
2023/10/18 22:32:40;;;;;;;8.90;6.60;;;;;;;-145.68;61.83;73393.84;10477310;28;20619;-72
2023/10/18 22:37:40;;;;;;;9.23;5.40;;;;;;;-145.68;61.89;73377.88;10477075;28;20563;-72
2023/10/18 22:42:44;;;;;;;10.37;6.43;;;;;;;-145.68;61.36;73401.84;10474296;28;20190;-73
2023/10/18 22:47:50;;;;;;;10.37;7.50;;;;;;;-145.68;62.27;73395.84;10478480;28;20214;-73
2023/10/18 22:52:51;;;;;;;15.40;7.97;;;;;;;-145.68;61.88;73369.88;10480212;28;20250;-74
2023/10/18 22:57:54;;;;;;;10.00;5.50;;;;;;;-145.68;61.30;73367.88;10479338;28;20191;-73
2023/10/18 23:02:55;;;;;;;15.87;6.77;;;;;;;-145.68;61.35;73353.88;10473720;28;20183;-74
2023/10/18 23:07:59;;;;;;;13.97;7.20;;;;;;;-145.68;61.51;73365.88;10475826;28;20197;-74
2023/10/18 23:13:00;;;;;;;10.83;7.23;;;;;;;-145.68;62.37;73381.88;10468053;28;20216;-74
2023/10/18 23:18:04;;;;;;;9.63;6.80;;;;;;;-145.68;62.25;73367.88;10475031;28;20556;-73
2023/10/18 23:23:06;;;;;;;8.60;6.70;;;;;;;-145.68;61.50;73335.91;10479562;28;20310;-74
2023/10/18 23:33:31;;;;;;;10.07;7.00;;;;;;;-145.68;61.41;73311.91;10470659;28;20310;-74
2023/10/18 23:38:38;;;;;;;15.03;6.97;;;;;;;-145.68;61.44;73307.91;10475149;28;20213;-73
2023/10/18 23:43:48;;;;;;;13.57;5.87;;;;;;;-145.68;60.99;73323.91;10477299;28;20217;-74